• Join FlightAware (Why Join?)
  • Login
  • US Flag 
04:38PM EDT


 

Airport Tracker/Info


-or-


 

Live Flight TrackerFlight Track Log ✈ N28JK ✈ 16-May-2013 ✈ KEYF - KVRB

Flight Track Log - Related Links

Times and Time Zones

All times are in EDT time to prevent confusion due to time zone crossing. See the N28JK flight status page for this flight to view local times or setup timezone preferences in your user account.

Time Position Orientation Groundspeed Altitude Reporting Facility
EDT Latitude Longitude Course Direction KTS MPH feet Rate Location/Type
11:59AM 34.5286 -78.6700 220° Southwest 134 154 5,900  Level Washington Center
12:00PM 34.4989 -78.6967 216° Southwest 134 154 7,900 1,860 Climbing Washington Center
12:02PM 34.2837 -78.8386 215° Southwest  Level FlightAware Approximate
12:03PM 34.2308 -78.8835 216° Southwest  Level FlightAware Approximate
12:03PM 34.3849 -78.7485 220° Southwest  Level FlightAware Approximate
12:03PM 34.4075 -78.7753 220° Southwest 137 158 13,200  Level Jacksonville Center
12:04PM 34.3772 -78.8019 216° Southwest 137 158 15,000 1,740 Climbing Jacksonville Center
12:05PM 34.3425 -78.8286 212° Southwest 147 169 16,700 1,500 Climbing Jacksonville Center
12:06PM 34.3122 -78.8553 216° Southwest 147 169 18,100 1,380 Climbing Jacksonville Center
12:07PM 34.2775 -78.8844 215° Southwest 147 169 19,500 1,320 Climbing Jacksonville Center
12:08PM 34.2431 -78.9139 215° Southwest 147 169 20,800 1,260 Climbing Jacksonville Center
12:09PM 34.2106 -78.9428 216° Southwest 152 175 22,100 1,200 Climbing Jacksonville Center
12:10PM 34.1761 -78.9694 213° Southwest 152 175 23,300 1,140 Climbing Jacksonville Center
12:11PM 34.1414 -78.9986 215° Southwest 152 175 24,400 1,020 Climbing Jacksonville Center
12:12PM 34.1067 -79.0253 212° Southwest 152 175 25,400 840 Climbing Jacksonville Center
12:13PM 34.0700 -79.0544 213° Southwest 152 175 26,100 300 Climbing Jacksonville Center
12:14PM 34.0275 -79.0939 218° Southwest 166 191 26,000 -60 Descending Jacksonville Center
12:15PM 33.9808 -79.1386 218° Southwest 197 227 26,000  Level Jacksonville Center
12:16PM 33.9278 -79.1808 213° Southwest 222 255 26,000  Level Jacksonville Center
12:17PM 33.8750 -79.2256 215° Southwest 232 267 26,000  Level Jacksonville Center
12:18PM 33.8219 -79.2728 216° Southwest 237 273 26,000  Level Jacksonville Center
12:19PM 33.7669 -79.3175 214° Southwest 237 273 26,000  Level Jacksonville Center
12:20PM 33.7058 -79.3675 214° Southwest 237 273 26,100  Climbing Jacksonville Center
12:21PM 33.6631 -79.4042 216° Southwest 232 267 26,100  Level Jacksonville Center
12:22PM 33.6081 -79.4511 215° Southwest 239 275 26,100  Level Jacksonville Center
12:23PM 33.5528 -79.4958 214° Southwest 239 275 26,100  Level Jacksonville Center
12:24PM 33.4978 -79.5400 214° Southwest 239 275 26,100  Level Jacksonville Center
12:25PM 33.4467 -79.5844 216° Southwest 239 275 26,100  Level Jacksonville Center
12:26PM 33.3936 -79.6286 215° Southwest 239 275 26,100  Level Jacksonville Center
12:27PM 33.3383 -79.6753 215° Southwest 239 275 26,100  Level Jacksonville Center
12:28PM 33.2833 -79.7222 216° Southwest 239 275 26,100  Level Jacksonville Center
12:29PM 33.2281 -79.7664 214° Southwest 239 275 26,100  Level Jacksonville Center
12:30PM 33.1747 -79.8103 215° Southwest 239 275 26,100  Level Jacksonville Center
12:31PM 33.1194 -79.8569 215° Southwest 239 275 26,100  Level Jacksonville Center
12:32PM 33.0642 -79.8983 212° Southwest 244 281 26,100  Level Jacksonville Center
12:33PM 33.0111 -79.9422 215° Southwest 244 281 26,100  Level Jacksonville Center
12:34PM 32.9578 -79.9886 216° Southwest 244 281 26,100  Level Jacksonville Center
12:35PM 32.9067 -80.0322 216° Southwest 239 275 26,100 -60 Level Jacksonville Center
12:36PM 32.8533 -80.0711 211° Southwest 239 275 26,000 -60 Descending Jacksonville Center
12:37PM 32.7978 -80.1125 212° Southwest 239 275 26,000  Level Jacksonville Center
12:38PM 32.7464 -80.1511 212° Southwest 232 267 26,000  Level Jacksonville Center
12:39PM 32.6931 -80.1897 211° Southwest 232 267 26,000  Level Jacksonville Center
12:40PM 32.6417 -80.2281 212° Southwest 232 267 26,000  Level Jacksonville Center
12:41PM 32.5881 -80.2667 211° Southwest 232 267 26,000  Level Jacksonville Center
12:42PM 32.5367 -80.3053 212° Southwest 232 267 26,000  Level Jacksonville Center
12:43PM 32.4811 -80.3389 207° Southwest 232 267 26,100  Climbing Jacksonville Center
12:44PM 32.4253 -80.3675 203° Southwest 226 260 26,000 -60 Descending Jacksonville Center
12:45PM 32.3672 -80.3936 201° Southwest 226 260 26,000  Level Jacksonville Center
12:46PM 32.3094 -80.4197 201° Southwest 226 260 26,000  Level Jacksonville Center
12:47PM 32.2494 -80.4483 202° Southwest 232 267 26,000  Level Jacksonville Center
12:48PM 32.1933 -80.4694 198° South 227 261 26,000  Level Jacksonville Center
12:49PM 32.1294 -80.5008 203° Southwest 227 261 26,000  Level Jacksonville Center
12:50PM 32.0778 -80.5267 203° Southwest 228 262 26,000  Level Jacksonville Center
12:51PM 32.0114 -80.5528 198° South 234 269 26,000  Level Jacksonville Center
12:52PM 31.9533 -80.5811 202° Southwest 234 269 26,000  Level Jacksonville Center
12:53PM 31.8994 -80.6044 200° South 229 264 26,000  Level Jacksonville Center
12:54PM 31.8353 -80.6331 201° Southwest 229 264 26,000  Level Jacksonville Center
12:55PM 31.7753 -80.6589 200° South 235 270 26,000  Level Jacksonville Center
12:56PM 31.7214 -80.6822 200° South 235 270 26,000  Level Jacksonville Center
12:57PM 31.6550 -80.7106 200° South 235 270 26,000  Level Jacksonville Center
12:58PM 31.5928 -80.7389 201° Southwest 235 270 26,000  Level Jacksonville Center
12:59PM 31.5350 -80.7672 203° Southwest 235 270 26,000  Level Jacksonville Center
01:00PM 31.4769 -80.7928 201° Southwest 229 264 26,000  Level Jacksonville Center
01:01PM 31.4231 -80.8133 198° South 236 272 26,000  Level Jacksonville Center
01:02PM 31.3544 -80.8442 201° Southwest 236 272 26,000  Level Jacksonville Center
01:03PM 31.2964 -80.8722 202° Southwest 236 272 26,000  Level Jacksonville Center
01:04PM 31.2364 -80.9003 202° Southwest 236 272 26,000  Level Jacksonville Center
01:05PM 31.1719 -80.9233 197° South 236 272 26,000  Level Jacksonville Center
01:06PM 31.1119 -80.9514 202° Southwest 231 266 26,000  Level Jacksonville Center
01:07PM 31.0519 -80.9792 202° Southwest 237 273 26,000  Level Jacksonville Center
01:08PM 30.9875 -81.0047 199° South 242 278 26,000  Level Jacksonville Center
01:09PM 30.9272 -81.0328 202° Southwest 242 278 26,000  Level Jacksonville Center
01:10PM 30.8650 -81.0606 201° Southwest 242 278 26,000  Level Jacksonville Center
01:11PM 30.8050 -81.0833 198° South 242 278 26,000  Level Jacksonville Center
01:12PM 30.7336 -81.0703 171° South 250 288 26,000  Level Jacksonville Center
01:13PM 30.6644 -81.0547 169° South 250 288 26,000  Level Jacksonville Center
01:14PM 30.5933 -81.0392 169° South 256 295 26,000  Level Jacksonville Center
01:15PM 30.5242 -81.0236 169° South 256 295 26,000  Level Jacksonville Center
01:16PM 30.4553 -81.0106 171° South 256 295 26,000  Level Jacksonville Center
01:17PM 30.3861 -80.9950 169° South 256 295 26,000  Level Jacksonville Center
01:18PM 30.3128 -80.9797 170° South 256 295 26,000  Level Jacksonville Center
01:19PM 30.2436 -80.9667 171° South 256 295 26,000  Level Jacksonville Center
01:20PM 30.1744 -80.9511 169° South 256 295 26,000  Level Jacksonville Center
01:21PM 30.1033 -80.9358 169° South 256 295 26,000  Level Jacksonville Center
01:22PM 30.0342 -80.9206 169° South 256 295 26,000  Level Jacksonville Center
01:23PM 29.9631 -80.9075 171° South 256 295 26,000  Level Jacksonville Center
01:24PM 29.8917 -80.8922 169° South 256 295 26,000  Level Jacksonville Center
01:25PM 29.8225 -80.8769 169° South 256 295 26,000  Level Jacksonville Center
01:26PM 29.7514 -80.8639 171° South 256 295 26,000  Level Jacksonville Center
01:27PM 29.6844 -80.8461 167° South 256 295 26,000  Level Jacksonville Center
01:28PM 29.6131 -80.8311 170° South 256 295 26,000  Level Jacksonville Center
01:29PM 29.5419 -80.8181 171° South 256 295 26,000 -60 Level Jacksonville Center
01:30PM 29.4728 -80.8053 171° South 256 295 25,900 -300 Descending Jacksonville Center
01:31PM 29.4036 -80.7831 164° South 256 295 25,500 -480 Descending Jacksonville Center
01:31PM 29.3714 -80.7825 179° South 263 303 25,200 -900 Descending Miami Center
01:32PM 29.2989 -80.7656 168° South 268 308 24,200 -960 Descending Miami Center
01:33PM 29.2242 -80.7511 170° South 268 308 23,300 -960 Descending Miami Center
01:34PM 29.1539 -80.7344 168° South 273 314 22,300 -1,020 Descending Miami Center
01:35PM 29.0811 -80.7200 170° South 273 314 21,300 -960 Descending Miami Center
01:36PM 29.0108 -80.7033 168° South 273 314 20,400 -900 Descending Miami Center
01:37PM 28.9422 -80.6889 170° South 267 307 19,600 -840 Descending Miami Center
01:38PM 28.8781 -80.6750 169° South 250 288 18,800 -780 Descending Miami Center
01:39PM 28.8136 -80.6633 171° South 243 280 18,100 -660 Descending Miami Center
01:40PM 28.7494 -80.6469 167° South 243 280 17,500 -720 Descending Miami Center
01:41PM 28.6872 -80.6328 169° South 238 274 16,700 -840 Descending Miami Center
01:42PM 28.6228 -80.6189 169° South 238 274 15,900 -780 Descending Miami Center
01:43PM 28.5586 -80.6050 169° South 238 274 15,200 -780 Descending Miami Center
01:44PM 28.5006 -80.5911 168° South 233 268 14,400 -840 Descending Miami Center
01:45PM 28.4383 -80.5772 169° South 233 268 13,600 -840 Descending Miami Center
01:46PM 28.3800 -80.5658 170° South 233 268 12,800 -840 Descending Miami Center
01:47PM 28.3197 -80.5569 173° South 223 257 12,000 -840 Descending Miami Center
01:48PM 28.2575 -80.5431 169° South 217 250 11,200 -840 Descending Miami Center
01:49PM 28.2036 -80.5294 167° South 210 242 10,400 -840 Descending Miami Center
01:50PM 28.1558 -80.5208 171° South 195 224 9,600 -780 Descending Miami Center
01:51PM 28.1103 -80.5122 171° South 185 213 8,900 -780 Descending Miami Center
01:52PM 28.0625 -80.5036 171° South 178 205 8,100 -780 Descending Miami Center
01:53PM 28.0106 -80.4950 172° South 178 205 7,400 -720 Descending Miami Center
01:54PM 27.9628 -80.4817 166° South 178 205 6,700 -720 Descending Miami Center
01:55PM 27.9150 -80.4731 171° South 178 205 6,000 -720 Descending Miami Center